Time;durP1;ratioP1;P1;durP2;ratioP2;P2;SDS_P1;SDS_P2;PMS_P1;PMS_P2;Temp;Humidity;BMP_temperature;BMP_pressure;BME280_temperature;BME280_humidity;BME280_pressure;Samples;Min_cycle;Max_cycle;Signal;HPM_P1;HPM_P2
2021/07/20 00:00:24;;;;;;;19.13;14.00;;;21.50;57.80;;;;;;5054056;28;20675;-51
2021/07/20 00:02:52;;;;;;;15.67;13.03;;;21.50;57.90;;;;;;5053789;28;20699;-51
2021/07/20 00:05:23;;;;;;;13.47;12.10;;;21.60;57.90;;;;;;5053353;28;20673;-51
2021/07/20 00:07:50;;;;;;;16.53;13.03;;;21.50;57.80;;;;;;5053959;28;20653;-50
2021/07/20 00:10:19;;;;;;;15.17;13.67;;;21.40;58.00;;;;;;5053750;28;20649;-51
2021/07/20 00:12:46;;;;;;;14.00;12.70;;;21.30;58.20;;;;;;5053633;28;20665;-49
2021/07/20 00:15:15;;;;;;;16.00;13.53;;;21.30;58.60;;;;;;5053444;28;20645;-51
2021/07/20 00:17:43;;;;;;;15.50;14.10;;;21.30;58.90;;;;;;5053402;28;20701;-50
2021/07/20 00:20:12;;;;;;;14.07;12.67;;;21.20;58.90;;;;;;5054160;28;20626;-49
2021/07/20 00:22:39;;;;;;;14.17;12.73;;;21.20;59.20;;;;;;5053328;28;20622;-51
2021/07/20 00:25:07;;;;;;;14.67;13.03;;;21.20;59.50;;;;;;5053465;28;20665;-51
2021/07/20 00:27:34;;;;;;;13.90;12.50;;;21.10;59.50;;;;;;5053781;28;20692;-50
2021/07/20 00:30:02;;;;;;;16.40;14.70;;;21.10;59.70;;;;;;5053214;28;21042;-50
2021/07/20 00:32:30;;;;;;;14.57;13.17;;;21.10;59.80;;;;;;5052443;28;20661;-49
2021/07/20 00:34:58;;;;;;;14.40;12.90;;;21.00;60.00;;;;;;5053031;28;20665;-51
2021/07/20 00:37:25;;;;;;;15.83;12.57;;;21.00;60.30;;;;;;5052651;28;20685;-50
2021/07/20 00:39:52;;;;;;;14.67;13.30;;;21.00;60.40;;;;;;5053198;28;20699;-50
2021/07/20 00:42:19;;;;;;;17.33;14.30;;;20.90;60.70;;;;;;5052512;28;20668;-51
2021/07/20 00:44:47;;;;;;;14.67;12.53;;;20.90;61.10;;;;;;5053085;28;20969;-51
2021/07/20 00:47:14;;;;;;;15.37;12.83;;;20.80;61.20;;;;;;5052992;28;20646;-50
2021/07/20 00:49:42;;;;;;;14.50;13.10;;;20.80;61.60;;;;;;5052685;28;20630;-51
2021/07/20 00:52:10;;;;;;;14.10;12.70;;;20.80;61.70;;;;;;5052752;28;20662;-51
2021/07/20 00:54:37;;;;;;;14.87;12.40;;;20.80;61.90;;;;;;5052730;28;20656;-51
2021/07/20 00:57:05;;;;;;;16.37;14.67;;;20.80;62.20;;;;;;5052459;28;20747;-51
2021/07/20 00:59:32;;;;;;;15.33;13.80;;;20.70;62.60;;;;;;5052343;28;20661;-50
2021/07/20 01:01:59;;;;;;;15.20;13.67;;;20.70;63.00;;;;;;5051431;28;20661;-50
2021/07/20 01:04:27;;;;;;;14.30;12.53;;;20.70;63.40;;;;;;5051794;28;20658;-50
2021/07/20 01:06:55;;;;;;;15.33;13.53;;;20.60;63.70;;;;;;5052615;28;20808;-50
2021/07/20 01:09:22;;;;;;;17.03;14.10;;;20.60;63.90;;;;;;5052434;28;20652;-50
2021/07/20 01:11:50;;;;;;;14.90;13.47;;;20.60;64.10;;;;;;5052362;28;21190;-50
2021/07/20 01:14:17;;;;;;;14.17;12.87;;;20.60;64.30;;;;;;5052211;28;20634;-50
2021/07/20 01:16:44;;;;;;;14.10;12.70;;;20.60;64.70;;;;;;5051931;28;21079;-50
2021/07/20 01:19:13;;;;;;;16.73;13.17;;;20.50;65.10;;;;;;5052456;28;20661;-49
2021/07/20 01:21:40;;;;;;;16.07;13.30;;;20.50;65.60;;;;;;5052171;28;20662;-50
2021/07/20 01:24:09;;;;;;;20.50;13.10;;;20.50;66.90;;;;;;5052195;28;20649;-50
2021/07/20 01:26:36;;;;;;;17.87;14.10;;;20.40;68.20;;;;;;5051814;28;20661;-50
2021/07/20 01:29:04;;;;;;;15.30;13.50;;;20.40;69.10;;;;;;5051816;28;20634;-50
2021/07/20 01:31:34;;;;;;;13.00;11.60;;;20.50;69.60;;;;;;5052099;28;20649;-50
2021/07/20 01:34:01;;;;;;;19.07;14.03;;;20.40;69.30;;;;;;5051769;28;20650;-49
2021/07/20 01:36:29;;;;;;;15.15;13.10;;;20.40;69.20;;;;;;5051437;28;20637;-49
2021/07/20 01:38:57;;;;;;;15.47;12.60;;;20.40;69.50;;;;;;5051636;28;21098;-49
2021/07/20 01:41:25;;;;;;;17.70;13.80;;;20.40;70.60;;;;;;5051219;28;20668;-49
2021/07/20 01:43:56;;;;;;;15.87;14.37;;;20.40;71.40;;;;;;5051882;28;20675;-49
2021/07/20 01:46:25;;;;;;;20.53;12.83;;;20.40;71.60;;;;;;5051509;28;21215;-49
2021/07/20 01:48:54;;;;;;;15.47;12.63;;;20.30;72.60;;;;;;5052056;28;20702;-49
2021/07/20 01:51:21;;;;;;;13.80;12.40;;;20.30;72.50;;;;;;5051119;28;20668;-49
2021/07/20 01:53:49;;;;;;;17.33;13.57;;;20.40;71.80;;;;;;5051325;28;20998;-49
2021/07/20 01:56:16;;;;;;;16.50;14.57;;;20.50;71.60;;;;;;5052103;28;20657;-49
2021/07/20 01:58:45;;;;;;;15.10;13.60;;;20.30;71.50;;;;;;5052052;28;21261;-49
2021/07/20 02:01:13;;;;;;;15.40;12.23;;;20.30;71.90;;;;;;5052099;28;20665;-47
2021/07/20 02:09:10;;;;;;;15.77;12.50;;;20.10;74.50;;;;;;5032389;28;20611;-48
2021/07/20 02:11:38;;;;;;;16.47;12.40;;;20.10;74.70;;;;;;5037667;28;20642;-49
2021/07/20 02:14:09;;;;;;;17.57;13.13;;;20.10;75.60;;;;;;5051200;28;20661;-49
2021/07/20 02:16:41;;;;;;;20.23;16.43;;;20.10;75.40;;;;;;5051186;28;21170;-49
2021/07/20 02:19:10;;;;;;;17.00;13.40;;;20.10;74.90;;;;;;5051478;28;20634;-48
2021/07/20 02:21:38;;;;;;;13.10;11.90;;;20.10;74.80;;;;;;5051723;28;20629;-49
2021/07/20 02:24:06;;;;;;;20.50;14.43;;;20.00;75.00;;;;;;5051876;28;20658;-49
2021/07/20 02:26:33;;;;;;;15.13;13.57;;;20.00;76.30;;;;;;5051368;28;20621;-49
2021/07/20 02:29:00;;;;;;;13.87;12.60;;;20.00;77.00;;;;;;5051335;28;20994;-50
2021/07/20 02:31:29;;;;;;;15.53;14.03;;;19.90;76.60;;;;;;5050762;28;21033;-49
2021/07/20 02:33:56;;;;;;;15.87;13.10;;;19.90;76.50;;;;;;5051446;28;20626;-49
2021/07/20 02:36:23;;;;;;;18.83;14.50;;;19.90;76.90;;;;;;5050610;28;20664;-49
2021/07/20 02:38:50;;;;;;;15.20;13.33;;;19.90;77.50;;;;;;5050965;28;20701;-49
2021/07/20 02:41:17;;;;;;;15.40;13.80;;;19.80;77.50;;;;;;5050873;28;20661;-49
2021/07/20 02:43:45;;;;;;;13.87;12.40;;;19.80;77.70;;;;;;5050826;28;20672;-49
2021/07/20 02:46:13;;;;;;;15.10;13.47;;;19.80;78.30;;;;;;5051526;28;21051;-50
2021/07/20 02:48:41;;;;;;;15.33;13.73;;;19.80;78.40;;;;;;5051353;28;20788;-49
2021/07/20 02:51:09;;;;;;;16.13;12.80;;;19.80;78.20;;;;;;5050944;28;21019;-49
2021/07/20 02:53:36;;;;;;;14.43;12.90;;;19.80;78.60;;;;;;5051002;28;20687;-49
2021/07/20 02:56:05;;;;;;;16.33;13.83;;;19.70;78.70;;;;;;5050766;28;20634;-49
2021/07/20 02:58:33;;;;;;;18.17;14.13;;;19.70;79.20;;;;;;5051462;28;20815;-49
2021/07/20 03:01:00;;;;;;;13.93;12.60;;;19.60;79.40;;;;;;5051227;28;21171;-48
2021/07/20 03:03:27;;;;;;;16.40;14.80;;;19.60;79.70;;;;;;5051268;28;20622;-49
2021/07/20 03:05:56;;;;;;;16.97;14.47;;;19.60;80.10;;;;;;5050746;28;21253;-48
2021/07/20 03:08:26;;;;;;;15.73;13.63;;;19.60;80.50;;;;;;5050672;28;21023;-49
2021/07/20 03:10:54;;;;;;;15.70;14.23;;;19.50;80.70;;;;;;5051372;28;20621;-49
2021/07/20 03:13:21;;;;;;;15.97;14.23;;;19.50;80.80;;;;;;5050057;28;20657;-48
2021/07/20 03:15:48;;;;;;;17.77;14.50;;;19.50;81.00;;;;;;5050971;28;21009;-49
2021/07/20 03:18:15;;;;;;;14.70;13.20;;;19.40;81.20;;;;;;5050539;28;20710;-48
2021/07/20 03:20:42;;;;;;;19.83;13.70;;;19.40;81.90;;;;;;5050383;28;20649;-49
2021/07/20 03:23:11;;;;;;;17.70;12.77;;;19.40;83.20;;;;;;5051147;28;20633;-49
2021/07/20 03:25:38;;;;;;;16.70;14.00;;;19.40;82.70;;;;;;5053720;28;21059;-48
2021/07/20 03:28:06;;;;;;;17.63;15.00;;;19.30;82.70;;;;;;5054590;28;20719;-49
2021/07/20 03:30:33;;;;;;;16.57;13.00;;;19.30;83.50;;;;;;5054110;28;20661;-50
2021/07/20 03:33:01;;;;;;;16.53;14.30;;;19.30;83.90;;;;;;5048457;28;20665;-49
2021/07/20 03:35:29;;;;;;;16.17;14.53;;;19.30;83.80;;;;;;5053858;28;20649;-49
2021/07/20 03:37:56;;;;;;;16.57;14.83;;;19.30;83.50;;;;;;5054307;28;20704;-49
2021/07/20 03:40:25;;;;;;;19.50;14.57;;;19.40;83.50;;;;;;5054396;28;21201;-52
2021/07/20 03:42:52;;;;;;;16.83;15.03;;;19.30;83.20;;;;;;5053164;28;20662;-50
2021/07/20 03:45:19;;;;;;;14.87;13.27;;;19.30;83.00;;;;;;5054571;28;20665;-51
2021/07/20 03:47:47;;;;;;;16.03;14.43;;;19.30;82.90;;;;;;5053747;28;20700;-52
2021/07/20 03:50:16;;;;;;;20.33;14.83;;;19.40;83.20;;;;;;5053807;28;20679;-50
2021/07/20 03:52:43;;;;;;;17.27;14.23;;;19.30;83.20;;;;;;5053097;28;20656;-52
2021/07/20 03:55:11;;;;;;;15.93;14.03;;;19.20;83.20;;;;;;5053861;28;20661;-51
2021/07/20 03:57:39;;;;;;;17.63;14.23;;;19.20;83.50;;;;;;5054384;28;20673;-49
2021/07/20 04:00:08;;;;;;;20.07;14.70;;;19.20;84.00;;;;;;5053602;28;20657;-49
2021/07/20 04:02:46;;;;;;;15.93;12.90;;;19.20;84.20;;;;;;5053293;28;20634;-48
2021/07/20 04:05:14;;;;;;;16.47;14.77;;;19.10;84.30;;;;;;5053187;28;20622;-49
2021/07/20 04:07:41;;;;;;;16.20;14.50;;;19.10;84.30;;;;;;5053542;28;20653;-49
2021/07/20 04:10:09;;;;;;;19.23;13.63;;;19.10;84.50;;;;;;5051868;28;20626;-49
2021/07/20 04:12:37;;;;;;;19.07;15.07;;;19.10;85.20;;;;;;5053344;28;20668;-50
2021/07/20 04:15:07;;;;;;;18.33;16.10;;;19.10;85.80;;;;;;5053028;28;20669;-49
2021/07/20 04:17:34;;;;;;;18.80;14.97;;;19.00;86.00;;;;;;5053372;28;20686;-49
2021/07/20 04:20:01;;;;;;;18.90;15.83;;;19.00;86.10;;;;;;5043212;28;20662;-50
2021/07/20 04:22:29;;;;;;;19.10;15.97;;;19.00;86.00;;;;;;5053040;28;20725;-51
2021/07/20 04:24:56;;;;;;;17.00;14.50;;;19.00;85.90;;;;;;5047666;28;20684;-49
2021/07/20 04:27:23;;;;;;;17.10;15.30;;;19.00;86.80;;;;;;5053130;28;20681;-49
2021/07/20 04:29:50;;;;;;;19.97;15.63;;;19.00;87.20;;;;;;5052377;28;20630;-48
2021/07/20 04:32:19;;;;;;;16.70;15.10;;;19.00;87.40;;;;;;5051817;28;20672;-48
2021/07/20 04:34:46;;;;;;;15.50;13.93;;;19.00;86.40;;;;;;5052761;28;20659;-49
2021/07/20 04:37:14;;;;;;;17.63;15.33;;;19.00;86.30;;;;;;5051873;28;21237;-50
2021/07/20 04:39:41;;;;;;;19.30;15.83;;;19.00;86.30;;;;;;5052888;28;20686;-49
2021/07/20 04:42:08;;;;;;;16.20;14.50;;;19.00;86.30;;;;;;5053347;28;21249;-50
2021/07/20 04:44:36;;;;;;;16.57;14.87;;;18.90;86.60;;;;;;5052916;28;20668;-49
2021/07/20 04:47:04;;;;;;;17.13;14.40;;;18.90;87.00;;;;;;5052518;28;20689;-49
2021/07/20 04:49:33;;;;;;;18.30;15.63;;;19.00;87.30;;;;;;5052540;28;20658;-48
2021/07/20 04:52:00;;;;;;;15.30;13.70;;;19.00;87.10;;;;;;5052554;28;20630;-49
2021/07/20 04:54:28;;;;;;;17.93;15.83;;;18.90;87.60;;;;;;5052389;28;21214;-49
2021/07/20 04:56:55;;;;;;;21.93;16.70;;;18.90;87.30;;;;;;5052714;28;20700;-49
2021/07/20 04:59:22;;;;;;;16.40;14.90;;;18.90;87.20;;;;;;5052416;28;20690;-50
2021/07/20 05:01:49;;;;;;;16.97;15.30;;;19.10;87.40;;;;;;5053001;28;20658;-52
2021/07/20 05:04:16;;;;;;;17.93;16.10;;;18.90;87.40;;;;;;5052413;28;21187;-51
2021/07/20 05:06:46;;;;;;;17.73;14.53;;;18.90;88.20;;;;;;5052305;28;20714;-50
2021/07/20 05:09:13;;;;;;;16.37;14.67;;;18.90;88.50;;;;;;5052201;28;20637;-51
2021/07/20 05:11:40;;;;;;;18.77;15.60;;;18.90;88.80;;;;;;5051945;28;21033;-51
2021/07/20 05:14:08;;;;;;;18.10;15.70;;;18.90;89.20;;;;;;5052343;28;20658;-51
2021/07/20 05:16:35;;;;;;;17.83;15.30;;;18.90;89.50;;;;;;5052092;28;20657;-51
2021/07/20 05:19:02;;;;;;;20.33;15.20;;;18.90;90.10;;;;;;5051918;28;20701;-50
2021/07/20 05:21:30;;;;;;;16.10;13.70;;;18.90;89.60;;;;;;5051845;28;20698;-52
2021/07/20 05:23:59;;;;;;;17.87;15.37;;;18.90;89.50;;;;;;5052235;28;20718;-51
2021/07/20 05:26:26;;;;;;;16.70;14.50;;;19.00;89.60;;;;;;5051532;28;20658;-51
2021/07/20 05:28:54;;;;;;;16.20;14.50;;;19.00;89.80;;;;;;5052303;28;20657;-51
2021/07/20 05:31:21;;;;;;;16.47;14.93;;;19.00;89.90;;;;;;5051820;28;20653;-52
2021/07/20 05:33:49;;;;;;;16.20;14.40;;;19.10;89.70;;;;;;5051853;28;21256;-51
2021/07/20 05:36:16;;;;;;;16.20;14.50;;;19.10;89.40;;;;;;5051604;28;20662;-51
2021/07/20 05:38:43;;;;;;;16.47;14.73;;;19.10;89.60;;;;;;5051353;28;20673;-51
2021/07/20 05:41:12;;;;;;;18.43;15.07;;;19.30;90.00;;;;;;5051080;28;20673;-51
2021/07/20 05:43:39;;;;;;;17.97;16.07;;;19.20;89.90;;;;;;5051623;28;20666;-49
2021/07/20 05:46:07;;;;;;;17.97;14.07;;;19.20;89.60;;;;;;5051322;28;20650;-50
2021/07/20 05:48:34;;;;;;;18.47;14.20;;;19.20;89.40;;;;;;5050908;28;20685;-48
2021/07/20 05:51:03;;;;;;;16.97;15.17;;;19.20;89.50;;;;;;5051600;28;20669;-50
2021/07/20 05:53:31;;;;;;;26.00;16.50;;;19.30;89.50;;;;;;5050628;28;21038;-49
2021/07/20 05:56:00;;;;;;;23.43;16.57;;;19.20;89.30;;;;;;5050684;28;20753;-48
2021/07/20 05:58:29;;;;;;;16.47;14.70;;;19.40;89.40;;;;;;5051251;28;20697;-52
2021/07/20 06:00:58;;;;;;;17.00;14.30;;;19.30;89.40;;;;;;5049952;28;20626;-51
2021/07/20 06:03:26;;;;;;;16.57;14.70;;;19.30;89.70;;;;;;5050937;28;21279;-52
2021/07/20 06:05:54;;;;;;;15.00;13.27;;;19.40;89.90;;;;;;5051093;28;20661;-50
2021/07/20 06:08:22;;;;;;;16.57;14.80;;;19.40;89.60;;;;;;5051016;28;20724;-50
2021/07/20 06:10:52;;;;;;;17.23;15.27;;;19.40;89.30;;;;;;5051181;28;20673;-50
2021/07/20 06:13:19;;;;;;;18.30;14.80;;;19.50;89.10;;;;;;5050858;28;21269;-50
2021/07/20 06:15:48;;;;;;;17.67;15.47;;;19.50;88.80;;;;;;5050825;28;20657;-51
2021/07/20 06:18:16;;;;;;;17.73;15.10;;;19.50;88.90;;;;;;5051331;28;20990;-52
2021/07/20 06:20:44;;;;;;;16.53;14.40;;;19.50;89.20;;;;;;5050950;28;20666;-52
2021/07/20 06:23:12;;;;;;;17.47;14.97;;;19.50;89.20;;;;;;5050988;28;20621;-50
2021/07/20 06:25:40;;;;;;;16.13;13.27;;;19.60;89.40;;;;;;5050681;28;20628;-50
2021/07/20 06:28:08;;;;;;;17.00;15.20;;;19.60;89.50;;;;;;5051132;28;20689;-52
2021/07/20 06:30:35;;;;;;;16.27;14.57;;;19.60;89.20;;;;;;5050738;28;20699;-52
2021/07/20 06:33:04;;;;;;;18.17;16.20;;;19.70;89.10;;;;;;5050747;28;20653;-52
2021/07/20 06:35:31;;;;;;;16.87;13.87;;;19.70;88.80;;;;;;5050506;28;20665;-52
2021/07/20 06:37:59;;;;;;;15.90;13.47;;;19.80;88.70;;;;;;5050524;28;20677;-51
2021/07/20 06:40:27;;;;;;;20.10;14.13;;;19.80;88.70;;;;;;5050713;28;20739;-51
2021/07/20 06:42:54;;;;;;;17.93;15.17;;;19.80;88.60;;;;;;5050513;28;20658;-52
2021/07/20 06:45:21;;;;;;;17.13;15.33;;;19.90;88.60;;;;;;5049961;28;20715;-52
2021/07/20 06:47:48;;;;;;;15.23;13.60;;;19.90;88.90;;;;;;5050324;28;20700;-51
2021/07/20 06:50:18;;;;;;;16.67;14.93;;;19.90;88.50;;;;;;5050292;28;21259;-52
2021/07/20 06:52:45;;;;;;;16.53;14.23;;;20.00;88.10;;;;;;5050443;28;20680;-52
2021/07/20 06:55:13;;;;;;;17.20;14.40;;;20.00;88.20;;;;;;5050161;28;21003;-50
2021/07/20 06:57:42;;;;;;;14.60;13.20;;;20.00;87.90;;;;;;5048520;28;20654;-51
2021/07/20 07:00:11;;;;;;;14.73;12.60;;;20.10;88.20;;;;;;5052152;28;20754;-52
2021/07/20 07:02:38;;;;;;;21.95;14.30;;;20.10;88.80;;;;;;5053855;28;20736;-50
2021/07/20 07:05:09;;;;;;;13.97;12.60;;;20.20;89.30;;;;;;5054254;28;20578;-51
2021/07/20 07:07:37;;;;;;;14.03;12.67;;;20.40;88.40;;;;;;5053941;28;20645;-51
2021/07/20 07:10:06;;;;;;;14.37;12.87;;;20.40;87.10;;;;;;5054437;28;20618;-50
2021/07/20 07:12:33;;;;;;;15.47;11.97;;;20.50;85.60;;;;;;5053960;28;20660;-50
2021/07/20 07:15:01;;;;;;;12.83;11.47;;;20.50;84.70;;;;;;5054150;28;20956;-50
2021/07/20 07:17:28;;;;;;;12.77;11.57;;;20.60;84.70;;;;;;5053793;28;20646;-50
2021/07/20 07:19:56;;;;;;;13.23;10.63;;;20.70;83.00;;;;;;5053653;28;20693;-50
2021/07/20 07:22:23;;;;;;;14.13;11.40;;;20.80;81.70;;;;;;5053867;28;20968;-50
